createdAt,value
2018-08-24T00:01:36.856Z,1.53
2018-08-24T00:03:39.947Z,1.23
2018-08-24T00:05:43.079Z,1.20
2018-08-24T00:07:46.162Z,1.20
2018-08-24T00:09:50.987Z,1.27
2018-08-24T00:11:54.115Z,1.20
2018-08-24T00:13:57.211Z,1.30
2018-08-24T00:16:00.311Z,1.30
2018-08-24T00:18:03.403Z,1.20
2018-08-24T00:20:06.524Z,1.30
2018-08-24T00:22:09.617Z,1.33
2018-08-24T00:24:13.407Z,1.67
2018-08-24T00:26:16.516Z,1.80
2018-08-24T00:28:19.611Z,1.57
2018-08-24T00:30:22.711Z,1.27
2018-08-24T00:32:25.803Z,1.60
2018-08-24T00:34:28.899Z,1.40
2018-08-24T00:36:32.020Z,1.20
2018-08-24T00:38:35.119Z,1.23
2018-08-24T00:40:38.226Z,2.60
2018-08-24T00:42:41.351Z,1.33
2018-08-24T00:44:44.524Z,1.33
2018-08-24T00:46:47.412Z,1.00
2018-08-24T00:48:50.276Z,1.20
2018-08-24T00:50:53.175Z,1.20
2018-08-24T00:52:56.063Z,1.10
2018-08-24T00:54:58.934Z,1.30
2018-08-24T00:57:01.802Z,1.70
2018-08-24T00:59:04.654Z,1.50
2018-08-24T01:01:07.823Z,1.93
2018-08-24T01:03:11.922Z,2.10
2018-08-24T01:05:14.803Z,2.00
2018-08-24T01:07:17.747Z,2.57
2018-08-24T01:09:20.627Z,2.33
2018-08-24T01:11:29.055Z,2.67
2018-08-24T01:13:31.951Z,2.70
2018-08-24T01:15:40.351Z,2.70
2018-08-24T01:17:48.804Z,2.73
2018-08-24T01:19:51.726Z,2.80
2018-08-24T01:21:54.585Z,3.13
2018-08-24T01:23:57.434Z,3.50
2018-08-24T01:26:00.315Z,2.90
2018-08-24T01:28:03.191Z,4.27
2018-08-24T01:30:06.054Z,4.27
2018-08-24T01:32:08.916Z,3.50
2018-08-24T01:34:11.767Z,3.97
2018-08-24T01:36:14.623Z,5.00
2018-08-24T01:38:17.474Z,5.13
2018-08-24T01:40:20.419Z,5.10
2018-08-24T01:42:23.272Z,5.87
2018-08-24T01:44:26.407Z,6.10
2018-08-24T01:46:29.263Z,6.20
2018-08-24T01:48:32.111Z,6.17
2018-08-24T01:50:35.000Z,5.60
2018-08-24T01:52:37.934Z,5.40
2018-08-24T01:54:40.888Z,4.83
2018-08-24T01:56:43.778Z,5.43
2018-08-24T01:58:46.743Z,4.50
2018-08-24T02:00:49.616Z,4.53
2018-08-24T02:02:52.499Z,5.20
2018-08-24T02:04:55.504Z,5.37
2018-08-24T02:06:58.466Z,4.20
2018-08-24T02:09:01.335Z,4.30
2018-08-24T02:11:08.542Z,4.70
2018-08-24T02:13:17.118Z,4.70
2018-08-24T02:15:20.124Z,4.70
2018-08-24T02:17:28.687Z,4.60
2018-08-24T02:19:37.104Z,4.43
2018-08-24T02:21:45.527Z,3.43
2018-08-24T02:23:48.383Z,4.03
2018-08-24T02:25:51.332Z,4.07
2018-08-24T02:27:54.527Z,3.70
2018-08-24T02:29:58.026Z,3.97
2018-08-24T02:32:01.144Z,4.47
2018-08-24T02:34:04.257Z,4.00
2018-08-24T02:36:08.395Z,4.80
2018-08-24T02:38:11.499Z,4.73
2018-08-24T02:40:14.601Z,4.47
2018-08-24T02:42:17.793Z,4.87
2018-08-24T02:44:20.811Z,5.63
2018-08-24T02:46:23.908Z,5.70
2018-08-24T02:48:27.003Z,5.67
2018-08-24T02:50:29.875Z,5.60
2018-08-24T02:52:32.759Z,6.03
2018-08-24T02:54:35.612Z,6.10
2018-08-24T02:56:38.483Z,5.43
2018-08-24T02:58:41.395Z,5.63
2018-08-24T03:00:44.492Z,5.77
2018-08-24T03:02:47.671Z,6.00
2018-08-24T03:04:50.763Z,5.83
2018-08-24T03:06:53.900Z,6.13
2018-08-24T03:08:56.971Z,6.33
2018-08-24T03:11:00.068Z,6.27
2018-08-24T03:13:03.230Z,6.17
2018-08-24T03:15:06.322Z,5.87
2018-08-24T03:17:14.944Z,7.70
2018-08-24T03:19:18.096Z,7.30
2018-08-24T03:21:21.318Z,6.77
2018-08-24T03:23:24.415Z,6.17
2018-08-24T03:25:27.516Z,6.43
2018-08-24T03:27:30.600Z,6.43
2018-08-24T03:29:33.690Z,5.90
2018-08-24T03:31:36.795Z,7.17
2018-08-24T03:33:39.892Z,6.87
2018-08-24T03:35:42.987Z,7.43
2018-08-24T03:37:46.096Z,7.03
2018-08-24T03:39:49.194Z,7.07
2018-08-24T03:41:52.279Z,5.90
2018-08-24T03:43:55.368Z,7.03
2018-08-24T03:45:58.477Z,7.07
2018-08-24T03:48:02.442Z,7.20
2018-08-24T03:50:05.539Z,6.97
2018-08-24T03:52:09.635Z,7.90
2018-08-24T03:54:14.612Z,7.60
2018-08-24T03:56:17.700Z,7.60
2018-08-24T03:58:20.776Z,9.83
2018-08-24T04:00:25.350Z,8.83
2018-08-24T04:02:28.498Z,8.53
2018-08-24T04:04:31.575Z,9.07
2018-08-24T04:06:34.660Z,9.87
2018-08-24T04:08:37.741Z,8.60
2018-08-24T04:10:40.828Z,9.33
2018-08-24T04:12:43.710Z,8.27
2018-08-24T04:14:46.604Z,9.00
2018-08-24T04:16:55.320Z,8.47
2018-08-24T04:18:58.403Z,8.77
2018-08-24T04:21:01.483Z,9.40
2018-08-24T04:23:04.575Z,10.07
2018-08-24T04:25:07.943Z,9.23
2018-08-24T04:27:11.103Z,8.10
2018-08-24T04:29:14.183Z,8.20
2018-08-24T04:31:17.270Z,8.43
2018-08-24T04:33:20.351Z,8.33
2018-08-24T04:35:23.436Z,8.97
2018-08-24T04:37:26.548Z,9.50
2018-08-24T04:39:29.656Z,9.60
2018-08-24T04:41:32.719Z,9.80
2018-08-24T04:43:35.816Z,12.33
2018-08-24T04:45:38.978Z,12.70
2018-08-24T04:47:42.073Z,13.20
2018-08-24T04:49:45.152Z,13.33
2018-08-24T04:51:48.264Z,13.70
2018-08-24T04:53:51.417Z,15.47
2018-08-24T04:55:54.507Z,17.60
2018-08-24T04:57:57.608Z,17.53
2018-08-24T05:00:00.759Z,17.37
2018-08-24T05:02:04.144Z,19.93
2018-08-24T05:04:07.262Z,19.97
2018-08-24T05:06:10.348Z,21.40
2018-08-24T05:08:13.455Z,22.40
2018-08-24T05:10:16.414Z,22.23
2018-08-24T05:12:19.495Z,21.67
2018-08-24T05:14:22.607Z,23.13
2018-08-24T05:16:25.708Z,24.27
2018-08-24T05:18:28.819Z,25.93
2018-08-24T05:20:31.908Z,25.57
2018-08-24T05:22:35.012Z,26.37
2018-08-24T05:24:38.204Z,24.10
2018-08-24T05:26:41.408Z,25.80
2018-08-24T05:28:44.508Z,25.83
2018-08-24T05:30:47.615Z,26.13
2018-08-24T05:32:50.727Z,24.40
2018-08-24T05:34:53.895Z,29.77
2018-08-24T05:36:56.984Z,29.23
2018-08-24T05:39:00.083Z,28.87
2018-08-24T05:41:03.182Z,29.50
2018-08-24T05:43:06.300Z,29.30
2018-08-24T05:45:09.399Z,30.50
2018-08-24T05:47:12.501Z,32.20
2018-08-24T05:49:15.628Z,32.77
2018-08-24T05:51:18.719Z,34.23
2018-08-24T05:53:21.834Z,32.90
2018-08-24T05:55:24.912Z,33.97
2018-08-24T05:57:27.999Z,36.17
2018-08-24T05:59:31.173Z,37.47
2018-08-24T06:01:34.268Z,35.30
2018-08-24T06:03:37.356Z,37.50
2018-08-24T06:05:45.872Z,37.60
2018-08-24T06:07:48.936Z,40.20
2018-08-24T06:09:52.036Z,39.70
2018-08-24T06:11:55.123Z,39.80
2018-08-24T06:13:58.243Z,40.50
2018-08-24T06:16:01.447Z,38.17
2018-08-24T06:18:04.481Z,38.83
2018-08-24T06:20:07.547Z,38.30
2018-08-24T06:22:10.643Z,38.30
2018-08-24T06:24:13.752Z,38.60
2018-08-24T06:26:16.947Z,38.20
2018-08-24T06:28:20.057Z,41.23
2018-08-24T06:30:23.171Z,43.20
2018-08-24T06:32:26.278Z,43.57
2018-08-24T06:34:29.381Z,41.10
2018-08-24T06:36:32.631Z,41.03
2018-08-24T06:38:35.745Z,40.80
2018-08-24T06:40:38.837Z,42.20
2018-08-24T06:42:42.000Z,42.40
2018-08-24T06:44:45.115Z,39.47
2018-08-24T06:46:48.209Z,41.63
2018-08-24T06:48:51.160Z,43.67
2018-08-24T06:50:54.266Z,41.37
2018-08-24T06:52:57.428Z,40.50
2018-08-24T06:55:00.287Z,40.10
2018-08-24T06:57:03.380Z,38.33
2018-08-24T06:59:06.464Z,39.63
2018-08-24T07:01:09.547Z,38.43
2018-08-24T07:03:12.627Z,43.77
2018-08-24T07:05:15.740Z,38.63
2018-08-24T07:07:18.812Z,39.00
2018-08-24T07:09:21.910Z,37.73
2018-08-24T07:11:25.008Z,40.53
2018-08-24T07:13:28.106Z,39.80
2018-08-24T07:15:31.198Z,37.60
2018-08-24T07:17:39.692Z,40.80
2018-08-24T07:19:42.802Z,39.20
2018-08-24T07:21:45.893Z,40.30
2018-08-24T07:23:48.996Z,41.83
2018-08-24T07:25:52.177Z,39.37
2018-08-24T07:27:55.275Z,38.33
2018-08-24T07:29:58.355Z,44.63
2018-08-24T07:32:01.536Z,41.90
2018-08-24T07:34:04.607Z,39.47
2018-08-24T07:36:07.720Z,39.03
2018-08-24T07:38:10.807Z,39.07
2018-08-24T07:40:13.890Z,34.73
2018-08-24T07:42:17.081Z,33.10
2018-08-24T07:44:20.164Z,35.07
2018-08-24T07:46:23.276Z,33.73
2018-08-24T07:48:26.543Z,32.17
2018-08-24T07:50:29.751Z,31.53
2018-08-24T07:52:32.839Z,31.73
2018-08-24T07:54:35.974Z,31.30
2018-08-24T07:56:39.071Z,29.07
2018-08-24T07:58:42.159Z,28.50
2018-08-24T08:00:45.272Z,26.53
2018-08-24T08:02:48.351Z,28.10
2018-08-24T08:04:51.451Z,29.40
2018-08-24T08:06:54.540Z,27.73
2018-08-24T08:08:57.900Z,26.90
2018-08-24T08:11:00.980Z,22.90
2018-08-24T08:13:04.083Z,21.23
2018-08-24T08:15:09.875Z,18.70
2018-08-24T08:17:13.858Z,18.97
2018-08-24T08:19:16.816Z,18.90
2018-08-24T08:21:19.684Z,15.93
2018-08-24T08:23:22.783Z,13.90
2018-08-24T08:25:25.856Z,13.33
2018-08-24T08:27:29.147Z,12.10
2018-08-24T08:29:37.623Z,10.80
2018-08-24T08:31:40.727Z,10.47
2018-08-24T08:33:43.941Z,9.97
2018-08-24T08:35:47.019Z,12.00
2018-08-24T08:37:50.124Z,10.63
2018-08-24T08:39:57.463Z,8.60
2018-08-24T08:42:00.562Z,8.30
2018-08-24T08:44:03.644Z,7.90
2018-08-24T08:46:06.728Z,7.30
2018-08-24T08:48:09.899Z,7.17
2018-08-24T08:50:12.999Z,5.30
2018-08-24T08:52:16.170Z,5.97
2018-08-24T08:54:19.235Z,6.40
2018-08-24T08:56:22.467Z,6.00
2018-08-24T08:58:25.561Z,5.47
2018-08-24T09:00:28.636Z,4.73
2018-08-24T09:02:32.663Z,5.10
2018-08-24T09:04:35.814Z,4.27
2018-08-24T09:06:38.932Z,4.70
2018-08-24T09:08:42.044Z,4.87
2018-08-24T09:10:45.127Z,4.40
2018-08-24T09:12:48.307Z,3.77
2018-08-24T09:14:51.139Z,3.70
2018-08-24T09:16:54.800Z,4.47
2018-08-24T09:19:03.303Z,3.67
2018-08-24T09:21:11.807Z,3.60
2018-08-24T09:23:20.216Z,4.80
2018-08-24T09:25:28.795Z,3.80
2018-08-24T09:27:36.699Z,2.83
2018-08-24T09:29:39.569Z,4.20
2018-08-24T09:31:42.891Z,3.60
2018-08-24T09:33:45.822Z,3.40
2018-08-24T09:35:48.711Z,3.97
2018-08-24T09:37:51.646Z,2.70
2018-08-24T09:39:54.684Z,3.30
2018-08-24T09:41:59.738Z,2.77
2018-08-24T09:44:02.842Z,3.03
2018-08-24T09:46:05.924Z,3.67
2018-08-24T09:48:14.579Z,2.40
2018-08-24T09:51:21.800Z,2.97
2018-08-24T09:53:30.191Z,3.00
2018-08-24T09:55:40.339Z,2.53
2018-08-24T09:57:43.435Z,2.40
2018-08-24T09:59:46.532Z,2.63
2018-08-24T10:01:55.047Z,2.30
2018-08-24T10:04:03.707Z,2.80
2018-08-24T10:06:12.283Z,2.50
2018-08-24T10:08:20.957Z,2.37
2018-08-24T10:10:24.041Z,2.40
2018-08-24T10:12:29.659Z,3.17
2018-08-24T10:14:32.712Z,3.20
2018-08-24T10:16:35.809Z,3.00
2018-08-24T10:18:38.763Z,3.00
2018-08-24T10:20:41.857Z,2.40
2018-08-24T10:22:44.968Z,2.20
2018-08-24T10:24:48.054Z,2.30
2018-08-24T10:26:51.193Z,2.70
2018-08-24T10:28:54.296Z,2.37
2018-08-24T10:30:57.564Z,2.20
2018-08-24T10:33:00.664Z,2.60
2018-08-24T10:35:03.755Z,2.90
2018-08-24T10:37:06.918Z,1.70
2018-08-24T10:39:11.099Z,2.10
2018-08-24T10:41:14.410Z,2.63
2018-08-24T10:43:17.516Z,1.87
2018-08-24T10:45:20.613Z,2.73
2018-08-24T10:47:23.720Z,1.60
2018-08-24T10:49:26.802Z,3.07
2018-08-24T10:51:29.879Z,2.80
2018-08-24T10:53:32.823Z,1.60
2018-08-24T10:55:35.990Z,2.93
2018-08-24T10:57:38.900Z,1.57
2018-08-24T10:59:41.985Z,2.13
2018-08-24T11:01:45.096Z,2.37
2018-08-24T11:03:48.209Z,1.83
2018-08-24T11:05:51.280Z,1.57
2018-08-24T11:07:54.403Z,1.53
2018-08-24T11:09:57.474Z,1.57
2018-08-24T11:12:00.560Z,2.50
2018-08-24T11:14:03.659Z,2.10
2018-08-24T11:16:06.667Z,1.67
2018-08-24T11:18:11.087Z,1.70
2018-08-24T11:20:14.171Z,1.53
2018-08-24T11:22:17.329Z,1.40
2018-08-24T11:24:20.514Z,1.70
2018-08-24T11:26:23.396Z,1.20
2018-08-24T11:28:26.498Z,1.47
2018-08-24T11:30:29.616Z,1.20
2018-08-24T11:32:32.707Z,1.60
2018-08-24T11:34:35.810Z,1.43
2018-08-24T11:36:38.876Z,1.87
2018-08-24T11:38:41.967Z,1.27
2018-08-24T11:40:44.827Z,1.40
2018-08-24T11:42:47.783Z,1.03
2018-08-24T11:44:50.660Z,1.00
2018-08-24T11:46:53.530Z,1.13
2018-08-24T11:48:56.624Z,1.80
2018-08-24T11:51:00.450Z,1.30
2018-08-24T11:53:03.556Z,1.20
2018-08-24T11:55:06.664Z,1.20
2018-08-24T11:57:09.801Z,1.27
2018-08-24T11:59:12.899Z,1.57
2018-08-24T12:01:15.999Z,1.20
2018-08-24T12:03:19.111Z,1.27
2018-08-24T12:05:22.202Z,1.57
2018-08-24T12:07:25.397Z,1.93
2018-08-24T12:09:28.586Z,1.40
2018-08-24T12:11:31.699Z,1.20
2018-08-24T12:13:34.781Z,1.40
2018-08-24T12:15:37.867Z,1.40
2018-08-24T12:17:40.968Z,1.57
2018-08-24T12:19:44.084Z,1.40
2018-08-24T12:21:47.190Z,1.53
2018-08-24T12:23:50.289Z,1.53
2018-08-24T12:25:53.479Z,1.60
2018-08-24T12:27:56.571Z,1.67
2018-08-24T12:29:59.668Z,1.10
2018-08-24T12:32:02.936Z,1.50
2018-08-24T12:34:06.237Z,2.07
2018-08-24T12:36:12.808Z,1.30
2018-08-24T12:38:15.900Z,1.37
2018-08-24T12:40:19.000Z,2.00
2018-08-24T12:42:22.091Z,1.33
2018-08-24T12:44:25.187Z,1.57
2018-08-24T12:46:28.287Z,1.20
2018-08-24T12:48:31.372Z,1.43
2018-08-24T12:50:34.484Z,1.60
2018-08-24T12:52:37.787Z,2.17
2018-08-24T12:54:40.888Z,1.20
2018-08-24T12:56:43.975Z,1.10
2018-08-24T12:58:47.270Z,1.10
2018-08-24T13:00:50.139Z,0.93
2018-08-24T13:02:53.012Z,1.40
2018-08-24T13:04:56.126Z,1.00
2018-08-24T13:06:59.220Z,1.43
2018-08-24T13:09:02.304Z,0.90
2018-08-24T13:11:05.908Z,1.40
2018-08-24T13:13:09.036Z,1.00
2018-08-24T13:15:12.218Z,1.13
2018-08-24T13:17:15.315Z,1.63
2018-08-24T13:19:18.423Z,1.60
2018-08-24T13:21:21.580Z,2.10
2018-08-24T13:23:24.657Z,1.23
2018-08-24T13:25:27.860Z,1.27
2018-08-24T13:27:31.022Z,1.70
2018-08-24T13:29:34.124Z,1.03
2018-08-24T13:31:37.227Z,1.10
2018-08-24T13:33:40.332Z,1.17
2018-08-24T13:35:43.435Z,1.83
2018-08-24T13:37:46.675Z,1.77
2018-08-24T13:39:53.838Z,1.67
2018-08-24T13:41:57.024Z,1.77
2018-08-24T13:44:00.232Z,1.47
2018-08-24T13:46:03.324Z,1.43
2018-08-24T13:48:06.916Z,1.43
2018-08-24T13:50:10.014Z,1.03
2018-08-24T13:52:13.111Z,1.57
2018-08-24T13:54:16.208Z,2.30
2018-08-24T13:56:19.299Z,1.40
2018-08-24T13:58:22.227Z,1.60
2018-08-24T14:00:26.653Z,1.60
2018-08-24T14:02:29.746Z,1.10
2018-08-24T14:04:32.840Z,1.40
2018-08-24T14:06:35.936Z,1.37
2018-08-24T14:08:39.026Z,1.33
2018-08-24T14:10:42.166Z,1.40
2018-08-24T14:12:45.264Z,2.03
2018-08-24T14:14:48.420Z,1.37
2018-08-24T14:16:51.498Z,1.03
2018-08-24T14:18:54.655Z,1.30
2018-08-24T14:20:57.830Z,1.67
2018-08-24T14:23:00.973Z,1.60
2018-08-24T14:25:04.484Z,1.47
2018-08-24T14:27:07.572Z,1.50
2018-08-24T14:29:10.657Z,1.60
2018-08-24T14:31:13.761Z,1.67
2018-08-24T14:33:17.022Z,1.37
2018-08-24T14:35:20.112Z,1.10
2018-08-24T14:37:23.212Z,1.40
2018-08-24T14:39:26.300Z,1.70
2018-08-24T14:41:29.388Z,2.07
2018-08-24T14:43:32.495Z,1.37
2018-08-24T14:45:35.729Z,1.87
2018-08-24T14:47:38.824Z,1.47
2018-08-24T14:49:41.898Z,1.50
2018-08-24T14:51:44.998Z,1.47
2018-08-24T14:53:48.081Z,1.40
2018-08-24T14:55:51.167Z,2.10
2018-08-24T14:57:54.287Z,1.47
2018-08-24T14:59:57.375Z,1.43
2018-08-24T15:02:00.555Z,1.57
2018-08-24T15:04:03.656Z,1.47
2018-08-24T15:06:06.885Z,1.20
2018-08-24T15:08:09.976Z,1.63
2018-08-24T15:10:13.088Z,1.30
2018-08-24T15:12:16.217Z,1.30
2018-08-24T15:14:19.131Z,1.50
2018-08-24T15:16:22.227Z,1.77
2018-08-24T15:18:25.096Z,1.40
2018-08-24T15:20:27.977Z,1.83
2018-08-24T15:22:30.967Z,1.33
2018-08-24T15:24:33.835Z,1.30
2018-08-24T15:26:37.104Z,1.23
2018-08-24T15:28:40.207Z,1.10
2018-08-24T15:30:43.312Z,1.57
2018-08-24T15:32:46.260Z,1.50
2018-08-24T15:34:49.148Z,1.27
2018-08-24T15:36:52.034Z,1.30
2018-08-24T15:38:55.123Z,1.10
2018-08-24T15:40:58.232Z,1.60
2018-08-24T15:43:01.361Z,1.30
2018-08-24T15:45:04.444Z,1.17
2018-08-24T15:47:07.555Z,1.37
2018-08-24T15:49:10.656Z,1.43
2018-08-24T15:51:13.756Z,1.47
2018-08-24T15:53:16.616Z,1.10
2018-08-24T15:55:19.472Z,2.00
2018-08-24T15:57:22.365Z,1.00
2018-08-24T15:59:25.474Z,1.13
2018-08-24T16:01:28.571Z,1.07
2018-08-24T16:03:31.679Z,1.70
2018-08-24T16:05:34.755Z,1.37
2018-08-24T16:07:38.411Z,1.17
2018-08-24T16:09:41.485Z,1.47
2018-08-24T16:11:44.584Z,1.60
2018-08-24T16:13:47.678Z,2.00
2018-08-24T16:15:50.755Z,1.40
2018-08-24T16:17:59.502Z,1.80
2018-08-24T16:20:02.520Z,1.63
2018-08-24T16:22:05.731Z,1.40
2018-08-24T16:24:08.817Z,1.77
2018-08-24T16:26:17.335Z,1.20
2018-08-24T16:28:20.619Z,1.30
2018-08-24T16:30:23.793Z,2.53
2018-08-24T16:32:26.828Z,1.23
2018-08-24T16:34:29.951Z,1.43
2018-08-24T16:36:33.011Z,1.40
2018-08-24T16:38:36.088Z,1.53
2018-08-24T16:40:39.168Z,1.30
2018-08-24T16:42:42.249Z,1.30
2018-08-24T16:44:45.787Z,1.70
2018-08-24T16:46:48.951Z,1.83
2018-08-24T16:48:51.954Z,1.20
2018-08-24T16:50:55.043Z,1.30
2018-08-24T16:52:58.152Z,1.30
2018-08-24T16:55:01.240Z,1.30
2018-08-24T16:57:04.376Z,1.07
2018-08-24T16:59:07.458Z,1.50
2018-08-24T17:01:10.547Z,1.40
2018-08-24T17:03:13.659Z,1.33
2018-08-24T17:05:16.755Z,1.20
2018-08-24T17:07:19.836Z,1.13
2018-08-24T17:09:22.923Z,1.63
2018-08-24T17:11:26.007Z,1.57
2018-08-24T17:13:28.875Z,1.20
2018-08-24T17:15:31.753Z,1.00
2018-08-24T17:17:34.630Z,1.10
2018-08-24T17:19:37.512Z,1.03
2018-08-24T17:21:40.640Z,1.30
2018-08-24T17:23:43.779Z,1.23
2018-08-24T17:25:46.848Z,1.70
2018-08-24T17:27:49.939Z,1.60
2018-08-24T17:29:53.029Z,1.00
2018-08-24T17:31:56.125Z,2.50
2018-08-24T17:33:59.212Z,1.63
2018-08-24T17:36:02.299Z,1.07
2018-08-24T17:38:05.663Z,1.20
2018-08-24T17:40:08.762Z,1.50
2018-08-24T17:42:11.952Z,1.43
2018-08-24T17:44:15.059Z,1.50
2018-08-24T17:46:18.229Z,1.30
2018-08-24T17:48:21.319Z,1.17
2018-08-24T17:50:24.407Z,1.37
2018-08-24T17:52:27.500Z,1.37
2018-08-24T17:54:30.747Z,1.13
2018-08-24T17:56:33.779Z,1.17
2018-08-24T17:58:36.887Z,1.63
2018-08-24T18:00:39.976Z,1.67
2018-08-24T18:02:43.072Z,1.20
2018-08-24T18:04:46.159Z,1.37
2018-08-24T18:06:49.259Z,1.13
2018-08-24T18:08:52.424Z,1.73
2018-08-24T18:10:55.509Z,1.37
2018-08-24T18:12:58.629Z,2.00
2018-08-24T18:15:02.096Z,1.10
2018-08-24T18:17:05.072Z,1.43
2018-08-24T18:19:08.311Z,1.40
2018-08-24T18:21:11.395Z,1.40
2018-08-24T18:23:14.487Z,2.20
2018-08-24T18:25:17.651Z,1.20
2018-08-24T18:27:20.752Z,1.07
2018-08-24T18:29:23.951Z,1.53
2018-08-24T18:31:27.060Z,1.10
2018-08-24T18:33:30.241Z,1.20
2018-08-24T18:35:33.323Z,1.10
2018-08-24T18:37:36.480Z,1.17
2018-08-24T18:39:39.581Z,1.53
2018-08-24T18:41:42.700Z,1.20
2018-08-24T18:43:45.801Z,1.37
2018-08-24T18:45:48.739Z,2.00
2018-08-24T18:47:51.831Z,1.33
2018-08-24T18:49:54.703Z,1.40
2018-08-24T18:51:57.567Z,1.20
2018-08-24T18:54:00.551Z,1.00
2018-08-24T18:56:03.441Z,1.23
2018-08-24T18:58:06.335Z,1.30
2018-08-24T19:00:09.204Z,1.83
2018-08-24T19:02:12.080Z,1.20
2018-08-24T19:04:15.016Z,0.93
2018-08-24T19:06:17.931Z,1.07
2018-08-24T19:08:21.031Z,1.33
2018-08-24T19:10:24.284Z,1.20
2018-08-24T19:12:28.438Z,0.90
2018-08-24T19:14:31.367Z,1.40
2018-08-24T19:16:34.299Z,1.97
2018-08-24T19:18:42.753Z,1.40
2018-08-24T19:20:51.214Z,1.10
2018-08-24T19:22:53.972Z,0.97
2018-08-24T19:24:56.952Z,1.00
2018-08-24T19:26:59.842Z,1.20
2018-08-24T19:29:08.200Z,1.57
2018-08-24T19:31:11.110Z,0.97
2018-08-24T19:33:13.983Z,1.00
2018-08-24T19:35:17.002Z,1.33
2018-08-24T19:37:19.861Z,1.27
2018-08-24T19:39:22.752Z,1.30
2018-08-24T19:41:31.100Z,1.63
2018-08-24T19:43:33.955Z,0.90
2018-08-24T19:45:36.903Z,1.30
2018-08-24T19:47:45.311Z,1.23
2018-08-24T19:49:48.191Z,2.50
2018-08-24T19:51:51.075Z,1.70
2018-08-24T19:53:54.083Z,1.37
2018-08-24T19:55:56.943Z,1.20
2018-08-24T19:58:05.300Z,1.60
2018-08-24T20:00:08.163Z,1.10
2018-08-24T20:02:11.139Z,1.10
2018-08-24T20:04:14.096Z,1.20
2018-08-24T20:06:22.592Z,1.40
2018-08-24T20:08:31.006Z,1.47
2018-08-24T20:10:33.885Z,1.10
2018-08-24T20:12:36.787Z,1.27
2018-08-24T20:14:45.219Z,2.10
2018-08-24T20:16:53.911Z,1.67
2018-08-24T20:18:56.814Z,1.47
2018-08-24T20:20:59.821Z,1.20
2018-08-24T20:23:02.680Z,1.10
2018-08-24T20:25:05.799Z,1.50
2018-08-24T20:27:09.004Z,1.03
2018-08-24T20:29:12.091Z,1.40
2018-08-24T20:31:15.188Z,1.20
2018-08-24T20:33:18.280Z,1.30
2018-08-24T20:35:21.396Z,1.83
2018-08-24T20:37:24.471Z,2.30
2018-08-24T20:39:27.561Z,1.60
2018-08-24T20:41:30.666Z,1.30
2018-08-24T20:43:33.747Z,1.70
2018-08-24T20:45:36.841Z,1.27
2018-08-24T20:47:39.931Z,1.50
2018-08-24T20:49:43.076Z,1.37
2018-08-24T20:51:46.167Z,1.30
2018-08-24T20:53:49.255Z,1.90
2018-08-24T20:55:52.355Z,2.20
2018-08-24T20:57:55.438Z,1.47
2018-08-24T20:59:58.565Z,1.70
2018-08-24T21:02:01.648Z,1.10
2018-08-24T21:04:04.784Z,1.63
2018-08-24T21:06:07.868Z,1.20
2018-08-24T21:08:10.966Z,1.23
2018-08-24T21:10:14.119Z,1.30
2018-08-24T21:12:17.204Z,1.10
2018-08-24T21:14:20.380Z,1.60
2018-08-24T21:16:23.472Z,1.30
2018-08-24T21:18:26.571Z,1.50
2018-08-24T21:20:29.667Z,2.43
2018-08-24T21:22:32.763Z,1.10
2018-08-24T21:24:35.848Z,1.57
2018-08-24T21:26:38.947Z,1.80
2018-08-24T21:28:42.179Z,1.40
2018-08-24T21:30:45.274Z,1.57
2018-08-24T21:32:48.359Z,1.20
2018-08-24T21:34:51.476Z,1.20
2018-08-24T21:36:54.566Z,1.23
2018-08-24T21:38:57.671Z,1.40
2018-08-24T21:41:00.767Z,1.30
2018-08-24T21:43:03.870Z,2.27
2018-08-24T21:45:07.123Z,1.33
2018-08-24T21:47:10.218Z,1.20
2018-08-24T21:49:13.315Z,1.80
2018-08-24T21:51:16.448Z,1.10
2018-08-24T21:53:19.547Z,1.10
2018-08-24T21:55:22.639Z,1.30
2018-08-24T21:57:25.724Z,1.47
2018-08-24T21:59:28.968Z,1.40
2018-08-24T22:01:32.057Z,1.10
2018-08-24T22:03:35.156Z,1.23
2018-08-24T22:05:38.263Z,1.93
2018-08-24T22:07:41.377Z,1.40
2018-08-24T22:09:44.484Z,1.30
2018-08-24T22:11:47.572Z,1.00
2018-08-24T22:13:50.665Z,1.17
2018-08-24T22:15:53.987Z,1.70
2018-08-24T22:17:57.137Z,1.40
2018-08-24T22:20:00.240Z,1.43
2018-08-24T22:22:03.336Z,1.60
2018-08-24T22:24:06.466Z,1.33
2018-08-24T22:26:09.619Z,1.53
2018-08-24T22:28:12.707Z,1.77
2018-08-24T22:30:15.795Z,1.40
2018-08-24T22:32:18.888Z,1.20
2018-08-24T22:34:21.989Z,1.27
2018-08-24T22:36:25.111Z,1.43
2018-08-24T22:38:28.208Z,1.50
2018-08-24T22:40:31.358Z,1.47
2018-08-24T22:42:34.470Z,1.47
2018-08-24T22:44:37.548Z,1.80
2018-08-24T22:46:40.636Z,1.40
2018-08-24T22:48:43.707Z,1.07
2018-08-24T22:50:46.807Z,1.40
2018-08-24T22:52:49.931Z,1.73
2018-08-24T22:54:53.029Z,1.20
2018-08-24T22:56:56.116Z,1.33
2018-08-24T22:58:59.196Z,1.60
2018-08-24T23:01:02.294Z,2.10
2018-08-24T23:03:05.515Z,1.43
2018-08-24T23:05:08.606Z,1.50
2018-08-24T23:07:11.719Z,1.50
2018-08-24T23:09:14.812Z,1.30
2018-08-24T23:11:17.899Z,1.20
2018-08-24T23:13:20.987Z,1.53
2018-08-24T23:15:24.095Z,1.63
2018-08-24T23:17:27.204Z,1.50
2018-08-24T23:19:30.324Z,1.50
2018-08-24T23:21:33.399Z,1.90
2018-08-24T23:23:36.491Z,1.60
2018-08-24T23:25:39.576Z,1.33
2018-08-24T23:27:42.515Z,1.70
2018-08-24T23:29:45.386Z,1.60
2018-08-24T23:31:48.259Z,1.40
2018-08-24T23:33:51.159Z,1.80
2018-08-24T23:35:54.276Z,1.20
2018-08-24T23:37:57.380Z,1.50
2018-08-24T23:40:00.484Z,1.40
2018-08-24T23:42:03.593Z,1.43
2018-08-24T23:44:06.703Z,1.93
2018-08-24T23:46:09.800Z,1.53
2018-08-24T23:48:12.923Z,1.70
2018-08-24T23:50:16.009Z,2.27
2018-08-24T23:52:19.098Z,1.90
2018-08-24T23:54:22.180Z,2.00
2018-08-24T23:56:25.259Z,2.27
2018-08-24T23:58:28.355Z,1.33
